Time;durP1;ratioP1;P1;durP2;ratioP2;P2;SDS_P1;SDS_P2;PMS_P1;PMS_P2;Temp;Humidity;BMP_temperature;BMP_pressure;BME280_temperature;BME280_humidity;BME280_pressure;Samples;Min_cycle;Max_cycle;Signal;HPM_P1;HPM_P2
2022/05/15 00:00:53;;;;;;;24.25;6.57;;;10.00;99.90;;;;;;4922907;29;20092;-66
2022/05/15 00:03:22;;;;;;;20.13;6.05;;;10.00;99.90;;;;;;4933226;29;20079;-66
2022/05/15 00:05:56;;;;;;;20.45;6.65;;;10.00;99.90;;;;;;4933614;29;20055;-66
2022/05/15 00:08:24;;;;;;;26.88;6.93;;;10.00;99.90;;;;;;4930324;29;20071;-66
2022/05/15 00:10:50;;;;;;;16.45;5.97;;;10.00;99.90;;;;;;4922506;29;20044;-66
2022/05/15 00:13:17;;;;;;;24.52;6.50;;;9.90;99.90;;;;;;4933610;29;20040;-65
2022/05/15 00:15:43;;;;;;;19.95;6.28;;;9.90;99.90;;;;;;4934096;29;20057;-66
2022/05/15 00:18:09;;;;;;;19.45;6.10;;;10.00;99.90;;;;;;4930193;29;20641;-66
2022/05/15 00:20:37;;;;;;;17.75;6.78;;;10.00;99.90;;;;;;4930620;29;20035;-66
2022/05/15 00:23:03;;;;;;;22.60;6.95;;;9.90;99.90;;;;;;4933357;29;20040;-64
2022/05/15 00:25:29;;;;;;;26.33;7.18;;;9.90;99.90;;;;;;4924344;29;20745;-65
2022/05/15 00:27:55;;;;;;;28.88;7.80;;;9.90;99.90;;;;;;4921852;29;20068;-65
2022/05/15 00:30:21;;;;;;;26.10;7.30;;;9.90;99.90;;;;;;4933385;29;20050;-64
2022/05/15 00:32:47;;;;;;;22.38;6.22;;;9.80;99.90;;;;;;4933674;29;20044;-65
2022/05/15 00:35:14;;;;;;;23.23;6.70;;;9.70;99.90;;;;;;4930315;29;20154;-65
2022/05/15 00:37:39;;;;;;;18.42;6.20;;;9.40;99.90;;;;;;4932282;29;20040;-65
2022/05/15 00:40:07;;;;;;;28.05;8.02;;;9.30;99.90;;;;;;4932768;29;20036;-66
2022/05/15 00:42:33;;;;;;;21.15;7.50;;;9.30;99.90;;;;;;4926129;29;20043;-66
2022/05/15 00:44:59;;;;;;;30.33;7.97;;;9.30;99.90;;;;;;4920670;29;20099;-65
2022/05/15 00:47:25;;;;;;;26.98;7.50;;;9.40;99.90;;;;;;4933096;29;20047;-65
2022/05/15 00:49:52;;;;;;;26.42;7.55;;;9.40;99.90;;;;;;4928993;29;20044;-66
2022/05/15 00:52:25;;;;;;;26.85;7.40;;;9.60;99.90;;;;;;4926573;29;20494;-66
2022/05/15 00:54:57;;;;;;;22.20;7.47;;;9.70;99.90;;;;;;4935188;29;20048;-66
2022/05/15 00:57:32;;;;;;;23.65;7.53;;;9.70;99.90;;;;;;4937732;29;20130;-66
2022/05/15 01:00:03;;;;;;;24.48;6.82;;;9.80;99.90;;;;;;4925837;29;20063;-65
2022/05/15 01:02:34;;;;;;;28.92;7.15;;;9.70;99.90;;;;;;4936529;29;20044;-66
2022/05/15 01:05:00;;;;;;;19.57;6.80;;;9.60;99.90;;;;;;4936599;29;20566;-65
2022/05/15 01:07:26;;;;;;;22.23;6.47;;;9.30;99.90;;;;;;4932752;29;20677;-65
2022/05/15 01:09:52;;;;;;;22.77;6.78;;;9.10;99.90;;;;;;4934620;29;20040;-66
2022/05/15 01:12:18;;;;;;;21.65;6.30;;;8.90;99.90;;;;;;4937102;29;20039;-66
2022/05/15 01:14:45;;;;;;;21.10;6.68;;;8.80;99.90;;;;;;4937056;29;20058;-66
2022/05/15 01:17:11;;;;;;;25.08;7.43;;;8.70;99.90;;;;;;4928399;29;20517;-65
2022/05/15 01:19:38;;;;;;;20.75;6.80;;;8.70;99.90;;;;;;4932930;29;20514;-65
2022/05/15 01:22:08;;;;;;;21.08;6.65;;;8.70;99.90;;;;;;4937101;29;20040;-64
2022/05/15 01:24:34;;;;;;;18.17;5.90;;;8.60;99.90;;;;;;4923283;29;20130;-65
2022/05/15 01:27:04;;;;;;;12.80;6.28;;;8.50;99.90;;;;;;4904878;29;20122;-66
2022/05/15 01:29:36;;;;;;;15.75;6.05;;;8.50;99.90;;;;;;4936357;29;20517;-66
2022/05/15 01:32:03;;;;;;;18.08;6.82;;;8.40;99.90;;;;;;4933285;29;20102;-66
2022/05/15 01:34:29;;;;;;;22.77;6.47;;;8.40;99.90;;;;;;4924356;29;20042;-66
2022/05/15 01:36:59;;;;;;;17.77;6.28;;;8.40;99.90;;;;;;4935524;29;20036;-65
2022/05/15 01:39:25;;;;;;;22.00;6.40;;;8.30;99.90;;;;;;4936599;29;20147;-65
2022/05/15 01:41:51;;;;;;;20.52;6.32;;;8.20;99.90;;;;;;4924239;29;20091;-66
2022/05/15 01:44:16;;;;;;;25.55;7.40;;;8.00;99.90;;;;;;4933901;29;20052;-65
2022/05/15 01:46:42;;;;;;;22.00;8.10;;;8.10;99.90;;;;;;4936260;29;20099;-66
2022/05/15 01:49:08;;;;;;;20.45;7.30;;;8.20;99.90;;;;;;4927017;29;20118;-66
2022/05/15 01:51:37;;;;;;;23.63;7.72;;;8.20;99.90;;;;;;4931645;29;20043;-66
2022/05/15 01:54:03;;;;;;;19.48;6.90;;;8.40;99.90;;;;;;4936085;29;20048;-65
2022/05/15 01:56:29;;;;;;;20.73;7.40;;;8.30;99.90;;;;;;4936460;29;20032;-66
2022/05/15 01:58:54;;;;;;;28.58;7.75;;;8.30;99.90;;;;;;4930388;29;20060;-66
2022/05/15 02:01:20;;;;;;;20.60;7.32;;;8.20;99.90;;;;;;4928557;29;20043;-65
2022/05/15 02:03:46;;;;;;;19.15;7.13;;;8.20;99.90;;;;;;4935827;29;20095;-66
2022/05/15 02:06:12;;;;;;;19.40;6.60;;;8.20;99.90;;;;;;4926897;29;20096;-66
2022/05/15 02:08:38;;;;;;;19.70;6.68;;;8.10;99.90;;;;;;4929104;29;20043;-66
2022/05/15 02:11:04;;;;;;;16.33;6.28;;;8.10;99.90;;;;;;4927272;29;20055;-65
2022/05/15 02:13:30;;;;;;;23.05;7.68;;;8.10;99.90;;;;;;4935783;29;20707;-66
2022/05/15 02:15:56;;;;;;;24.25;7.30;;;8.00;99.90;;;;;;4928280;29;20594;-66
2022/05/15 02:18:21;;;;;;;18.33;6.57;;;8.00;99.90;;;;;;4931722;29;20044;-64
2022/05/15 02:20:47;;;;;;;17.67;6.45;;;8.00;99.90;;;;;;4935983;29;20060;-66
2022/05/15 02:23:12;;;;;;;22.17;7.72;;;8.00;99.90;;;;;;4923104;29;20036;-66
2022/05/15 02:25:39;;;;;;;19.90;7.30;;;8.00;99.90;;;;;;4926647;29;20122;-66
2022/05/15 02:28:05;;;;;;;21.35;7.55;;;8.00;99.90;;;;;;4935666;29;20119;-66
2022/05/15 02:30:30;;;;;;;17.98;7.30;;;8.10;99.90;;;;;;4935628;29;20122;-66
2022/05/15 02:32:56;;;;;;;27.02;7.47;;;8.00;99.90;;;;;;4925307;29;20135;-65
2022/05/15 02:35:22;;;;;;;24.45;6.72;;;8.00;99.90;;;;;;4932212;29;20043;-65
2022/05/15 02:37:48;;;;;;;17.83;6.72;;;7.90;99.90;;;;;;4935700;29;20035;-65
2022/05/15 02:40:17;;;;;;;19.95;7.13;;;7.90;99.90;;;;;;4919451;29;20814;-64
2022/05/15 02:42:43;;;;;;;25.95;7.72;;;7.90;99.90;;;;;;4934267;29;20039;-66
2022/05/15 02:45:09;;;;;;;22.65;8.07;;;7.90;99.90;;;;;;4935324;29;20094;-65
2022/05/15 02:47:34;;;;;;;22.10;7.18;;;7.90;99.90;;;;;;4925534;29;20059;-64
2022/05/15 02:52:44;;;;;;;20.20;7.43;;;7.90;99.90;;;;;;4932789;29;20068;-66
2022/05/15 02:55:10;;;;;;;20.92;7.40;;;7.90;99.90;;;;;;4929376;29;20043;-65
2022/05/15 02:57:39;;;;;;;18.50;7.15;;;7.90;99.90;;;;;;4925743;29;20039;-64
2022/05/15 03:00:05;;;;;;;18.27;7.20;;;7.80;99.90;;;;;;4925805;29;20490;-66
2022/05/15 03:02:31;;;;;;;12.98;6.43;;;7.70;99.90;;;;;;4935275;29;20091;-66
2022/05/15 03:04:56;;;;;;;14.98;6.40;;;7.60;99.90;;;;;;4926370;29;20047;-65
2022/05/15 03:07:22;;;;;;;20.95;7.50;;;7.50;99.90;;;;;;4934638;29;20392;-66
2022/05/15 03:09:48;;;;;;;19.73;7.50;;;7.40;99.90;;;;;;4925370;29;20047;-65
2022/05/15 03:12:13;;;;;;;20.83;7.22;;;7.30;99.90;;;;;;4929193;29;20052;-66
2022/05/15 03:14:39;;;;;;;21.52;8.05;;;7.30;99.90;;;;;;4921667;29;20040;-64
2022/05/15 03:17:04;;;;;;;15.82;6.90;;;7.30;99.90;;;;;;4924960;29;20071;-64
2022/05/15 03:19:31;;;;;;;21.60;7.60;;;7.20;99.90;;;;;;4935001;29;20039;-66
2022/05/15 03:21:56;;;;;;;20.35;7.45;;;7.20;99.90;;;;;;4920226;29;20478;-65
2022/05/15 03:24:22;;;;;;;17.95;7.30;;;7.20;99.90;;;;;;4929188;29;20046;-65
2022/05/15 03:26:48;;;;;;;18.45;7.28;;;7.10;99.90;;;;;;4934354;29;20047;-65
2022/05/15 03:29:16;;;;;;;20.35;7.18;;;7.10;99.90;;;;;;4914429;29;20056;-65
2022/05/15 03:31:42;;;;;;;21.00;7.43;;;7.00;99.90;;;;;;4919719;29;20050;-65
2022/05/15 03:34:10;;;;;;;23.70;8.35;;;6.90;99.90;;;;;;4934411;29;20406;-65
2022/05/15 03:36:36;;;;;;;21.15;7.53;;;6.90;99.90;;;;;;4934773;29;20094;-64
2022/05/15 03:39:03;;;;;;;20.83;8.27;;;6.80;99.90;;;;;;4925890;29;20035;-65
2022/05/15 03:41:29;;;;;;;25.30;8.98;;;6.80;99.90;;;;;;4934259;29;20043;-65
2022/05/15 03:43:54;;;;;;;23.67;9.15;;;6.90;99.90;;;;;;4934062;29;20055;-65
2022/05/15 03:46:20;;;;;;;27.38;9.18;;;7.00;99.90;;;;;;4929908;29;20051;-64
2022/05/15 03:48:46;;;;;;;28.35;9.60;;;7.10;99.90;;;;;;4927420;29;20035;-64
2022/05/15 03:51:12;;;;;;;29.33;9.18;;;7.30;99.90;;;;;;4931698;29;20047;-64
2022/05/15 03:53:38;;;;;;;30.08;10.10;;;7.40;99.90;;;;;;4934097;29;20062;-64
2022/05/15 03:56:04;;;;;;;26.60;9.90;;;7.50;99.90;;;;;;4935252;29;20462;-64
2022/05/15 03:58:33;;;;;;;33.78;9.57;;;7.70;99.90;;;;;;4929541;29;20064;-64
2022/05/15 04:00:59;;;;;;;23.70;9.27;;;7.80;99.90;;;;;;4934099;29;20044;-64
2022/05/15 04:03:25;;;;;;;25.67;9.05;;;7.90;99.90;;;;;;4921626;29;20032;-64
2022/05/15 04:05:50;;;;;;;31.55;9.63;;;7.90;99.90;;;;;;4927384;29;20057;-64
2022/05/15 04:08:16;;;;;;;23.10;9.50;;;8.00;99.90;;;;;;4925551;29;20490;-64
2022/05/15 04:10:42;;;;;;;31.13;10.57;;;8.10;99.90;;;;;;4928104;29;20039;-64
2022/05/15 04:13:08;;;;;;;31.73;10.80;;;8.20;99.90;;;;;;4934394;29;20054;-64
2022/05/15 04:15:34;;;;;;;29.42;10.38;;;8.30;99.90;;;;;;4934883;29;20410;-64
2022/05/15 04:18:00;;;;;;;30.23;11.23;;;8.40;99.90;;;;;;4926772;29;20042;-64
2022/05/15 04:20:28;;;;;;;30.33;9.77;;;8.50;99.90;;;;;;4921355;29;20031;-64
2022/05/15 04:22:54;;;;;;;32.10;9.95;;;8.60;99.90;;;;;;4933234;29;20043;-64
2022/05/15 04:25:21;;;;;;;27.98;10.15;;;8.70;99.90;;;;;;4934784;29;20458;-64
2022/05/15 04:27:47;;;;;;;27.92;9.82;;;8.80;99.90;;;;;;4931920;29;20063;-64
2022/05/15 04:30:16;;;;;;;28.58;9.02;;;8.80;99.90;;;;;;4929932;29;20057;-65
2022/05/15 04:32:42;;;;;;;30.88;9.00;;;8.70;99.90;;;;;;4934571;29;20039;-65
2022/05/15 04:35:09;;;;;;;24.77;8.38;;;8.80;99.90;;;;;;4914668;29;20410;-65
2022/05/15 04:37:35;;;;;;;23.30;8.75;;;8.80;99.90;;;;;;4913323;29;20086;-65
2022/05/15 04:40:01;;;;;;;29.63;9.85;;;8.90;99.90;;;;;;4922911;29;20043;-64
2022/05/15 04:42:26;;;;;;;30.88;9.57;;;9.00;99.90;;;;;;4930730;29;20039;-64
2022/05/15 04:44:52;;;;;;;34.35;10.20;;;9.10;99.90;;;;;;4923343;29;20055;-64
2022/05/15 04:47:18;;;;;;;20.15;9.18;;;9.20;99.90;;;;;;4928875;29;20074;-64
2022/05/15 04:49:44;;;;;;;28.13;9.10;;;9.20;99.90;;;;;;4930478;29;20058;-64
2022/05/15 04:52:10;;;;;;;27.20;9.75;;;9.30;99.90;;;;;;4921657;29;20079;-65
2022/05/15 04:54:37;;;;;;;23.55;9.27;;;9.40;99.90;;;;;;4915469;29;20071;-64
2022/05/15 04:57:04;;;;;;;31.17;9.73;;;9.50;99.90;;;;;;4931272;29;20038;-65
2022/05/15 04:59:30;;;;;;;33.67;10.00;;;9.60;99.90;;;;;;4930727;29;20043;-65
2022/05/15 05:01:55;;;;;;;25.00;9.57;;;9.70;99.90;;;;;;4926035;29;20399;-65
2022/05/15 05:04:21;;;;;;;27.63;9.50;;;9.80;99.90;;;;;;4925642;29;20047;-65
2022/05/15 05:06:47;;;;;;;24.77;10.60;;;9.80;99.90;;;;;;4927943;29;20083;-65
2022/05/15 05:09:12;;;;;;;27.65;8.98;;;9.90;99.90;;;;;;4902192;29;20102;-64
2022/05/15 05:11:39;;;;;;;25.05;8.93;;;10.00;99.90;;;;;;4927497;29;20083;-64
2022/05/15 05:14:05;;;;;;;27.85;9.60;;;10.00;99.90;;;;;;4913373;29;20048;-64
2022/05/15 05:16:31;;;;;;;34.28;9.63;;;10.10;99.90;;;;;;4930972;29;20054;-64
2022/05/15 05:18:56;;;;;;;20.42;9.15;;;10.20;99.90;;;;;;4924836;29;20443;-64
2022/05/15 05:21:22;;;;;;;31.08;9.38;;;10.30;99.90;;;;;;4925160;29;20048;-65
2022/05/15 05:23:48;;;;;;;23.02;8.57;;;10.30;99.90;;;;;;4930085;29;20075;-65
2022/05/15 05:26:13;;;;;;;23.92;8.88;;;10.40;99.90;;;;;;4921897;29;20090;-65
2022/05/15 05:28:39;;;;;;;34.63;9.10;;;10.50;99.90;;;;;;4929769;29;20419;-65
2022/05/15 05:31:05;;;;;;;22.80;9.07;;;10.60;99.90;;;;;;4919075;29;20059;-65
2022/05/15 05:33:31;;;;;;;25.42;8.68;;;10.70;99.90;;;;;;4920727;29;20044;-65
2022/05/15 05:35:56;;;;;;;29.55;9.73;;;10.80;99.90;;;;;;4929872;29;20044;-65
2022/05/15 05:38:22;;;;;;;28.17;9.32;;;10.90;99.90;;;;;;4923100;29;20763;-65
2022/05/15 05:40:48;;;;;;;27.17;9.27;;;11.00;99.90;;;;;;4929308;29;20039;-65
2022/05/15 05:43:13;;;;;;;30.08;9.30;;;11.10;99.90;;;;;;4929019;29;20565;-65
2022/05/15 05:45:39;;;;;;;23.63;9.15;;;11.20;99.90;;;;;;4933423;29;20043;-65
2022/05/15 05:48:05;;;;;;;29.08;8.45;;;11.30;99.90;;;;;;4933761;29;20032;-65
2022/05/15 05:50:31;;;;;;;27.50;9.88;;;11.40;99.90;;;;;;4934228;29;20078;-65
2022/05/15 05:52:57;;;;;;;25.83;8.82;;;11.50;99.90;;;;;;4925324;29;20079;-65
2022/05/15 05:55:24;;;;;;;26.30;8.70;;;11.60;99.90;;;;;;4926457;29;20043;-65
2022/05/15 05:57:50;;;;;;;22.17;8.10;;;11.70;99.90;;;;;;4933851;29;20491;-65
2022/05/15 06:00:31;;;;;;;24.08;8.45;;;11.80;99.90;;;;;;4923191;29;20058;-66
2022/05/15 06:05:41;;;;;;;19.67;7.55;;;12.10;99.90;;;;;;4933707;29;20048;-65
2022/05/15 06:08:07;;;;;;;22.85;7.50;;;12.20;99.90;;;;;;4933999;29;20047;-65
2022/05/15 06:10:33;;;;;;;18.35;7.50;;;12.30;99.90;;;;;;4929204;29;20051;-65
2022/05/15 06:12:58;;;;;;;19.50;7.57;;;12.40;99.90;;;;;;4932366;29;20460;-64
2022/05/15 06:15:24;;;;;;;18.75;7.55;;;12.50;99.90;;;;;;4929647;29;20048;-65
2022/05/15 06:17:49;;;;;;;24.02;7.30;;;12.60;99.90;;;;;;4921208;29;20051;-64
2022/05/15 06:20:16;;;;;;;19.92;8.13;;;12.70;99.90;;;;;;4933685;29;20043;-64
2022/05/15 06:22:42;;;;;;;29.00;7.35;;;12.80;99.90;;;;;;4931684;29;20068;-65
2022/05/15 06:25:08;;;;;;;22.80;7.13;;;12.90;99.90;;;;;;4925205;29;20088;-64
2022/05/15 06:27:34;;;;;;;17.73;6.95;;;13.00;99.90;;;;;;4929681;29;20062;-65
2022/05/15 06:30:00;;;;;;;22.67;6.70;;;13.00;99.90;;;;;;4928343;29;20028;-64
2022/05/15 06:32:26;;;;;;;19.73;6.70;;;13.20;99.90;;;;;;4903456;29;20565;-64
2022/05/15 06:34:52;;;;;;;27.17;6.80;;;13.30;99.90;;;;;;4926225;29;20049;-65
2022/05/15 06:37:18;;;;;;;17.73;6.75;;;13.40;99.90;;;;;;4932746;29;20095;-66
2022/05/15 06:39:43;;;;;;;18.60;6.90;;;13.50;99.90;;;;;;4933096;29;20051;-64
2022/05/15 06:42:09;;;;;;;20.45;6.47;;;13.60;99.90;;;;;;4926763;29;20058;-65
2022/05/15 06:44:34;;;;;;;21.42;7.05;;;13.60;99.90;;;;;;4929146;29;20051;-65
2022/05/15 06:47:00;;;;;;;19.42;6.30;;;13.70;99.90;;;;;;4933450;29;20672;-64
2022/05/15 06:49:25;;;;;;;16.17;6.30;;;13.80;99.90;;;;;;4928362;29;20558;-64
2022/05/15 06:51:51;;;;;;;17.85;6.60;;;13.90;99.90;;;;;;4931359;29;20122;-64
2022/05/15 06:54:17;;;;;;;16.70;6.13;;;13.90;99.90;;;;;;4932962;29;20082;-65
2022/05/15 06:59:28;;;;;;;15.02;6.07;;;14.10;99.90;;;;;;4919299;29;20048;-64
2022/05/15 07:01:53;;;;;;;17.00;6.05;;;14.20;99.90;;;;;;4931695;29;20036;-64
2022/05/15 07:04:19;;;;;;;17.58;5.97;;;14.30;99.90;;;;;;4932613;29;20047;-64
2022/05/15 07:06:44;;;;;;;18.20;5.70;;;14.40;99.90;;;;;;4919917;29;20075;-64
2022/05/15 07:09:10;;;;;;;13.88;5.82;;;14.50;99.90;;;;;;4929657;29;20038;-64
2022/05/15 07:11:35;;;;;;;15.88;6.50;;;14.60;99.90;;;;;;4932190;29;20091;-64
2022/05/15 07:14:01;;;;;;;13.38;5.50;;;14.70;99.90;;;;;;4927063;29;20064;-64
2022/05/15 07:16:26;;;;;;;20.75;6.00;;;14.80;99.90;;;;;;4927518;29;20063;-64
2022/05/15 07:18:52;;;;;;;16.65;5.63;;;14.90;99.90;;;;;;4932084;29;20167;-64
2022/05/15 07:21:18;;;;;;;16.02;5.72;;;15.00;99.90;;;;;;4932104;29;20054;-64
2022/05/15 07:23:44;;;;;;;16.30;5.80;;;15.10;99.90;;;;;;4922609;29;20823;-65
2022/05/15 07:26:10;;;;;;;20.95;5.68;;;15.10;99.90;;;;;;4931830;29;20122;-64
2022/05/15 07:28:35;;;;;;;17.60;5.22;;;15.30;99.90;;;;;;4932493;29;20122;-64
2022/05/15 07:31:01;;;;;;;19.10;5.03;;;15.40;99.90;;;;;;4932432;29;20042;-64
2022/05/15 07:33:27;;;;;;;116.28;9.52;;;15.50;99.90;;;;;;4923108;29;20063;-64
2022/05/15 07:35:56;;;;;;;18.70;6.32;;;15.70;99.90;;;;;;4931618;29;20054;-64
2022/05/15 07:38:23;;;;;;;18.33;5.47;;;15.70;99.90;;;;;;4931980;29;20380;-64
2022/05/15 07:40:49;;;;;;;20.58;5.20;;;15.90;99.90;;;;;;4920413;29;20043;-64
2022/05/15 07:43:15;;;;;;;16.05;5.05;;;16.00;99.90;;;;;;4931953;29;20043;-64
2022/05/15 07:45:41;;;;;;;17.73;5.28;;;16.10;99.90;;;;;;4932444;29;20477;-64
2022/05/15 07:48:07;;;;;;;17.60;5.13;;;16.20;99.90;;;;;;4925647;29;20032;-65
2022/05/15 07:50:33;;;;;;;21.38;5.28;;;16.30;99.90;;;;;;4919056;29;20525;-64
2022/05/15 07:52:59;;;;;;;16.00;4.97;;;16.30;99.90;;;;;;4931528;29;20074;-64
2022/05/15 07:55:25;;;;;;;17.63;5.30;;;16.40;99.90;;;;;;4928672;29;20051;-65
2022/05/15 07:57:51;;;;;;;19.50;5.47;;;16.40;99.90;;;;;;4920134;29;20051;-65
2022/05/15 08:00:17;;;;;;;14.90;5.00;;;16.60;99.90;;;;;;4922369;29;20035;-64
2022/05/15 08:02:44;;;;;;;13.85;4.72;;;16.60;99.90;;;;;;4930990;29;20048;-64
2022/05/15 08:08:02;;;;;;;13.60;5.25;;;16.80;99.90;;;;;;4920148;29;20044;-64
2022/05/15 08:10:30;;;;;;;16.17;4.68;;;16.90;99.90;;;;;;4923583;29;20083;-65
2022/05/15 08:12:56;;;;;;;19.67;5.00;;;17.00;99.90;;;;;;4921549;29;20048;-66
2022/05/15 08:15:21;;;;;;;17.60;4.95;;;17.20;99.90;;;;;;4931443;29;20103;-64
2022/05/15 08:17:47;;;;;;;19.83;5.28;;;17.20;99.90;;;;;;4930953;29;20916;-65
2022/05/15 08:25:42;;;;;;;18.70;4.78;;;17.50;99.90;;;;;;4928195;29;20047;-64
2022/05/15 08:28:08;;;;;;;18.52;4.95;;;17.70;99.90;;;;;;4931603;29;20410;-64
2022/05/15 08:30:33;;;;;;;17.80;4.45;;;17.70;99.90;;;;;;4921050;29;20470;-65
2022/05/15 08:32:59;;;;;;;14.82;4.85;;;17.70;99.90;;;;;;4930272;29;20047;-64
2022/05/15 08:35:25;;;;;;;19.40;5.22;;;17.90;99.90;;;;;;4931874;29;20040;-64
2022/05/15 08:37:50;;;;;;;17.08;4.47;;;18.00;99.90;;;;;;4931430;29;20508;-64
2022/05/15 08:40:21;;;;;;;19.20;5.53;;;18.00;99.90;;;;;;4920995;29;20051;-65
2022/05/15 08:42:47;;;;;;;;;;;18.20;99.90;;;;;;4931540;29;20055;-64
2022/05/15 08:45:16;;;;;;;17.30;4.80;;;18.20;99.80;;;;;;4929478;29;19922;-64
2022/05/15 08:47:47;;;;;;;16.63;4.93;;;18.20;99.90;;;;;;4922938;29;20048;-65
2022/05/15 08:50:16;;;;;;;18.60;4.90;;;18.40;99.90;;;;;;4923931;29;20092;-64
2022/05/15 08:52:52;;;;;;;20.05;5.47;;;18.40;99.90;;;;;;4931472;29;20044;-64
2022/05/15 08:55:40;;;;;;;18.15;4.90;;;18.50;98.20;;;;;;4921359;29;20127;-65
2022/05/15 08:58:11;;;;;;;19.50;5.30;;;18.60;99.00;;;;;;4923507;29;20467;-64
2022/05/15 09:00:50;;;;;;;19.55;4.53;;;18.70;99.90;;;;;;4931356;29;20667;-65
2022/05/15 09:03:38;;;;;;;19.92;4.95;;;18.80;99.40;;;;;;4922200;29;20136;-65
2022/05/15 09:06:22;;;;;;;17.10;4.90;;;18.90;99.90;;;;;;4914149;29;20122;-64
2022/05/15 09:09:19;;;;;;;22.85;5.03;;;19.00;98.90;;;;;;4931680;29;20545;-64
2022/05/15 09:11:55;;;;;;;17.83;4.65;;;19.10;98.60;;;;;;4927809;29;20131;-65
2022/05/15 09:14:40;;;;;;;13.98;4.22;;;19.20;99.90;;;;;;4924107;29;20112;-65
2022/05/15 09:17:21;;;;;;;17.45;5.10;;;19.40;99.40;;;;;;4927372;29;20052;-64
2022/05/15 09:19:57;;;;;;;20.08;4.95;;;19.50;98.30;;;;;;4914609;29;20055;-66
2022/05/15 09:22:27;;;;;;;14.25;4.75;;;19.50;97.30;;;;;;4934271;29;20047;-64
2022/05/15 09:24:53;;;;;;;20.60;5.10;;;19.60;99.90;;;;;;4934215;29;20043;-65
2022/05/15 09:27:22;;;;;;;17.73;5.18;;;19.70;99.80;;;;;;4923600;29;20040;-65
2022/05/15 09:29:55;;;;;;;20.40;5.95;;;19.70;98.40;;;;;;4930723;29;20044;-65
2022/05/15 09:32:30;;;;;;;21.27;5.55;;;19.80;98.30;;;;;;4933435;29;20134;-65
2022/05/15 09:34:58;;;;;;;20.75;5.28;;;19.80;97.30;;;;;;4924989;29;20507;-65
2022/05/15 09:43:30;;;;;;;16.27;4.45;;;20.00;95.70;;;;;;4925829;29;20123;-65
2022/05/15 09:43:32;;;;;;;18.73;4.68;;;20.00;97.50;;;;;;4925207;29;20100;-65
2022/05/15 09:46:06;;;;;;;17.38;4.90;;;20.20;98.90;;;;;;4922768;29;20675;-66
2022/05/15 09:49:12;;;;;;;18.13;5.03;;;20.30;98.70;;;;;;4931010;29;20047;-65
2022/05/15 09:51:45;;;;;;;17.75;5.00;;;20.50;96.90;;;;;;4882824;29;20503;-65
2022/05/15 09:54:46;;;;;;;22.70;5.00;;;20.60;96.40;;;;;;4920745;29;20104;-65
2022/05/15 09:57:12;;;;;;;18.27;4.80;;;20.70;95.30;;;;;;4925565;29;20052;-64
2022/05/15 09:59:38;;;;;;;19.52;4.88;;;20.70;97.00;;;;;;4932816;29;20394;-65
2022/05/15 10:02:04;;;;;;;16.00;5.05;;;20.80;97.00;;;;;;4926542;29;20099;-64
2022/05/15 10:04:39;;;;;;;17.83;5.05;;;20.90;97.00;;;;;;4932226;29;20043;-65
2022/05/15 10:07:09;;;;;;;17.00;4.93;;;21.10;92.20;;;;;;4933253;29;20526;-65
2022/05/15 10:09:39;;;;;;;18.20;5.20;;;21.10;95.80;;;;;;4926054;29;20055;-65
2022/05/15 10:12:08;;;;;;;15.43;5.20;;;21.30;96.30;;;;;;4925469;29;20055;-65
2022/05/15 10:14:56;;;;;;;18.17;5.28;;;21.40;95.30;;;;;;4932708;29;20371;-64
2022/05/15 10:17:24;;;;;;;20.23;5.63;;;21.50;93.50;;;;;;4931117;29;20050;-65
2022/05/15 10:19:55;;;;;;;14.43;4.80;;;21.50;94.50;;;;;;4928969;29;20107;-64
2022/05/15 10:22:39;;;;;;;22.45;4.95;;;21.50;94.00;;;;;;4932486;29;20079;-66
2022/05/15 10:25:34;;;;;;;16.83;4.68;;;21.40;95.20;;;;;;4932078;29;20103;-62
2022/05/15 10:28:25;;;;;;;20.00;5.22;;;21.50;90.90;;;;;;4927670;29;20040;-64
2022/05/15 10:31:03;;;;;;;17.35;5.18;;;21.50;87.90;;;;;;4932017;29;20047;-64
2022/05/15 10:33:37;;;;;;;18.52;5.07;;;21.50;92.20;;;;;;4909198;29;20086;-64
2022/05/15 10:36:27;;;;;;;19.02;4.90;;;21.40;92.30;;;;;;4919605;29;20039;-63
2022/05/15 10:39:24;;;;;;;17.75;6.53;;;21.50;94.90;;;;;;4931225;29;20048;-68
2022/05/15 10:42:13;;;;;;;14.40;5.28;;;21.70;92.90;;;;;;4909568;29;20059;-66
2022/05/15 10:45:06;;;;;;;16.20;5.13;;;21.90;94.70;;;;;;4929492;29;20044;-68
2022/05/15 10:48:07;;;;;;;17.25;4.80;;;22.00;91.70;;;;;;4931862;29;20051;-69
2022/05/15 10:50:55;;;;;;;14.10;4.57;;;22.10;91.10;;;;;;4886752;29;20126;-68
2022/05/15 10:59:51;;;;;;;14.90;4.43;;;22.30;82.20;;;;;;4925807;29;20419;-66
2022/05/15 11:02:38;;;;;;;16.52;4.70;;;22.40;74.90;;;;;;4908695;29;20118;-66
2022/05/15 11:05:13;;;;;;;15.65;4.35;;;22.50;80.20;;;;;;4930569;29;20043;-65
2022/05/15 11:07:53;;;;;;;17.73;4.80;;;22.50;85.80;;;;;;4925583;29;20052;-64
2022/05/15 11:10:56;;;;;;;15.68;4.60;;;22.60;78.20;;;;;;4931210;29;20083;-66
2022/05/15 11:13:56;;;;;;;14.98;4.85;;;22.70;82.40;;;;;;4911543;29;20068;-67
2022/05/15 11:16:26;;;;;;;14.50;4.68;;;22.80;75.80;;;;;;4913744;29;20131;-65
2022/05/15 11:19:22;;;;;;;18.13;5.10;;;22.90;86.70;;;;;;4928052;29;20668;-65
2022/05/15 11:22:12;;;;;;;13.40;4.63;;;22.90;80.50;;;;;;4930537;29;20474;-64
2022/05/15 11:25:00;;;;;;;11.13;4.10;;;23.00;78.50;;;;;;4924923;29;20043;-65
2022/05/15 11:27:29;;;;;;;14.40;4.47;;;23.20;79.20;;;;;;4918333;29;20044;-65
2022/05/15 11:29:59;;;;;;;15.20;4.38;;;23.30;78.30;;;;;;4922428;29;20048;-65
2022/05/15 11:32:27;;;;;;;16.30;4.82;;;23.40;81.50;;;;;;4927356;29;20107;-64
2022/05/15 11:35:02;;;;;;;15.82;5.10;;;23.40;78.70;;;;;;4914175;29;20394;-65
2022/05/15 11:37:37;;;;;;;14.88;4.53;;;23.40;76.50;;;;;;4926332;29;20091;-65
2022/05/15 11:40:04;;;;;;;15.85;4.78;;;23.40;76.90;;;;;;4911350;29;20040;-65
2022/05/15 11:42:30;;;;;;;13.93;4.65;;;23.50;80.80;;;;;;4912901;29;20079;-65
2022/05/15 11:45:28;;;;;;;14.60;4.20;;;23.40;81.70;;;;;;4920842;29;20044;-65
2022/05/15 11:48:10;;;;;;;15.02;4.47;;;23.50;72.20;;;;;;4930717;29;20567;-66
2022/05/15 11:50:44;;;;;;;18.85;4.68;;;23.60;73.10;;;;;;4923716;29;20082;-63
2022/05/15 11:53:12;;;;;;;14.43;4.13;;;23.80;74.50;;;;;;4914482;29;20084;-66
2022/05/15 11:55:47;;;;;;;12.73;4.75;;;24.00;70.80;;;;;;4921102;29;20039;-65
2022/05/15 11:58:26;;;;;;;14.23;4.40;;;24.10;69.80;;;;;;4930370;29;20070;-66
2022/05/15 12:01:14;;;;;;;15.70;4.70;;;24.30;67.20;;;;;;4928040;29;20039;-65
2022/05/15 12:03:39;;;;;;;14.98;4.38;;;24.40;63.20;;;;;;4928780;29;20100;-65
2022/05/15 12:06:12;;;;;;;14.63;4.30;;;24.50;68.80;;;;;;4927173;29;20068;-65
2022/05/15 12:08:39;;;;;;;14.52;4.50;;;24.40;66.80;;;;;;4929910;29;20086;-65
2022/05/15 12:11:27;;;;;;;21.63;4.50;;;24.60;67.50;;;;;;4930441;29;20055;-65
2022/05/15 12:13:54;;;;;;;16.02;4.65;;;24.60;66.00;;;;;;4927112;29;20055;-65
2022/05/15 12:16:27;;;;;;;18.67;4.53;;;24.60;66.00;;;;;;4921641;29;20047;-65
2022/05/15 12:18:58;;;;;;;14.32;4.43;;;24.60;63.60;;;;;;4912823;29;20502;-65
2022/05/15 12:21:32;;;;;;;14.27;4.28;;;24.50;61.60;;;;;;4930439;29;20098;-65
2022/05/15 12:27:07;;;;;;;12.63;4.38;;;24.70;62.20;;;;;;4927688;29;20060;-65
2022/05/15 12:29:45;;;;;;;12.30;4.00;;;24.40;56.80;;;;;;4913233;29;20566;-65
2022/05/15 12:32:17;;;;;;;13.70;4.50;;;24.40;58.40;;;;;;4922553;29;20817;-65
2022/05/15 12:34:46;;;;;;;8.48;3.83;;;24.30;57.90;;;;;;4928803;29;20122;-66
2022/05/15 12:37:27;;;;;;;15.35;4.75;;;24.30;58.60;;;;;;4929968;29;20044;-66
2022/05/15 12:39:54;;;;;;;15.77;4.65;;;24.50;58.80;;;;;;4921612;29;20047;-65
2022/05/15 12:42:36;;;;;;;15.13;4.30;;;24.80;59.10;;;;;;4929576;29;20490;-65
2022/05/15 12:45:16;;;;;;;15.77;4.07;;;24.90;56.20;;;;;;4929147;29;20075;-65
2022/05/15 12:47:42;;;;;;;12.30;4.47;;;24.90;58.10;;;;;;4930371;29;20043;-66
2022/05/15 12:50:16;;;;;;;10.80;4.00;;;25.00;58.20;;;;;;4919938;29;20091;-65
2022/05/15 12:52:42;;;;;;;13.85;4.00;;;24.90;55.10;;;;;;4925796;29;20750;-63
2022/05/15 12:55:25;;;;;;;15.85;4.28;;;25.00;57.30;;;;;;4930027;29;20146;-63
2022/05/15 12:57:53;;;;;;;12.70;4.03;;;25.10;54.50;;;;;;4921175;29;20099;-64
2022/05/15 13:00:34;;;;;;;15.25;4.20;;;25.30;56.90;;;;;;4929642;29;20115;-65
2022/05/15 13:03:03;;;;;;;14.98;4.13;;;25.50;56.60;;;;;;4929044;29;20110;-65
2022/05/15 13:05:36;;;;;;;12.40;4.20;;;25.60;55.50;;;;;;4916607;29;20763;-65
2022/05/15 13:08:05;;;;;;;12.65;4.03;;;25.60;55.80;;;;;;4923086;29;20043;-64
2022/05/15 13:10:32;;;;;;;16.33;4.10;;;25.80;56.20;;;;;;4929823;29;20040;-65
2022/05/15 13:13:12;;;;;;;10.23;3.72;;;25.90;55.50;;;;;;4917537;29;20047;-65
2022/05/15 13:15:43;;;;;;;11.18;4.03;;;26.10;53.70;;;;;;4923914;29;20063;-65
2022/05/15 13:18:11;;;;;;;;;;;26.30;55.70;;;;;;4930076;29;20158;-64
2022/05/15 13:20:39;;;;;;;16.45;5.03;;;26.10;49.30;;;;;;4924122;29;20022;-65
2022/05/15 13:23:06;;;;;;;15.80;3.97;;;26.20;53.30;;;;;;4921356;29;20044;-65